sensor_id;sensor_type;location;lat;lon;timestamp;temperature;humidity
10300;DHT22;5195;48.562;9.192;2023-03-01T00:01:32;2.60;41.90
10300;DHT22;5195;48.562;9.192;2023-03-01T00:04:07;2.70;42.00
10300;DHT22;5195;48.562;9.192;2023-03-01T00:06:44;3.20;42.00
10300;DHT22;5195;48.562;9.192;2023-03-01T00:09:22;3.20;41.30
10300;DHT22;5195;48.562;9.192;2023-03-01T00:11:58;3.00;41.20
10300;DHT22;5195;48.562;9.192;2023-03-01T00:14:33;3.00;41.50
10300;DHT22;5195;48.562;9.192;2023-03-01T00:17:09;2.80;41.50
10300;DHT22;5195;48.562;9.192;2023-03-01T00:19:44;2.50;41.90
10300;DHT22;5195;48.562;9.192;2023-03-01T00:22:21;2.80;41.70
10300;DHT22;5195;48.562;9.192;2023-03-01T00:24:56;2.90;41.80
10300;DHT22;5195;48.562;9.192;2023-03-01T00:27:32;2.70;41.60
10300;DHT22;5195;48.562;9.192;2023-03-01T00:30:08;2.40;41.90
10300;DHT22;5195;48.562;9.192;2023-03-01T00:32:43;2.20;42.30
10300;DHT22;5195;48.562;9.192;2023-03-01T00:35:20;2.60;42.40
10300;DHT22;5195;48.562;9.192;2023-03-01T00:37:56;2.50;42.30
10300;DHT22;5195;48.562;9.192;2023-03-01T00:40:32;2.80;41.80
10300;DHT22;5195;48.562;9.192;2023-03-01T00:43:06;2.70;41.70
10300;DHT22;5195;48.562;9.192;2023-03-01T00:45:42;2.60;41.90
10300;DHT22;5195;48.562;9.192;2023-03-01T00:48:18;3.00;41.60
10300;DHT22;5195;48.562;9.192;2023-03-01T00:50:55;3.00;41.50
10300;DHT22;5195;48.562;9.192;2023-03-01T00:53:31;3.10;41.30
10300;DHT22;5195;48.562;9.192;2023-03-01T00:56:07;2.80;41.30
10300;DHT22;5195;48.562;9.192;2023-03-01T00:58:42;2.80;41.80
10300;DHT22;5195;48.562;9.192;2023-03-01T01:04:09;2.20;42.20
10300;DHT22;5195;48.562;9.192;2023-03-01T01:06:41;2.10;42.70
10300;DHT22;5195;48.562;9.192;2023-03-01T01:09:06;2.20;43.00
10300;DHT22;5195;48.562;9.192;2023-03-01T01:11:31;2.20;42.90
10300;DHT22;5195;48.562;9.192;2023-03-01T01:13:57;1.90;42.90
10300;DHT22;5195;48.562;9.192;2023-03-01T01:16:23;2.00;43.40
10300;DHT22;5195;48.562;9.192;2023-03-01T01:18:48;2.40;43.00
10300;DHT22;5195;48.562;9.192;2023-03-01T01:21:14;2.30;42.70
10300;DHT22;5195;48.562;9.192;2023-03-01T01:23:39;2.30;42.70
10300;DHT22;5195;48.562;9.192;2023-03-01T01:26:20;2.30;42.90
10300;DHT22;5195;48.562;9.192;2023-03-01T01:28:44;2.30;42.90
10300;DHT22;5195;48.562;9.192;2023-03-01T01:31:10;2.20;42.90
10300;DHT22;5195;48.562;9.192;2023-03-01T01:33:36;2.50;43.20
10300;DHT22;5195;48.562;9.192;2023-03-01T01:36:02;2.40;42.70
10300;DHT22;5195;48.562;9.192;2023-03-01T01:38:27;2.70;42.50
10300;DHT22;5195;48.562;9.192;2023-03-01T01:40:54;2.60;42.50
10300;DHT22;5195;48.562;9.192;2023-03-01T01:43:25;2.60;42.60
10300;DHT22;5195;48.562;9.192;2023-03-01T01:45:49;2.50;42.70
10300;DHT22;5195;48.562;9.192;2023-03-01T01:48:16;2.20;43.00
10300;DHT22;5195;48.562;9.192;2023-03-01T01:50:40;2.30;43.20
10300;DHT22;5195;48.562;9.192;2023-03-01T01:53:12;2.60;43.00
10300;DHT22;5195;48.562;9.192;2023-03-01T01:55:39;2.90;42.50
10300;DHT22;5195;48.562;9.192;2023-03-01T01:58:04;3.20;42.20
10300;DHT22;5195;48.562;9.192;2023-03-01T02:00:29;3.30;42.40
10300;DHT22;5195;48.562;9.192;2023-03-01T02:03:00;3.20;41.80
10300;DHT22;5195;48.562;9.192;2023-03-01T02:07:57;3.30;41.60
10300;DHT22;5195;48.562;9.192;2023-03-01T02:10:23;2.80;42.10
10300;DHT22;5195;48.562;9.192;2023-03-01T02:12:49;2.80;42.10
10300;DHT22;5195;48.562;9.192;2023-03-01T02:15:15;3.10;43.00
10300;DHT22;5195;48.562;9.192;2023-03-01T02:17:40;3.10;42.40
10300;DHT22;5195;48.562;9.192;2023-03-01T02:22:35;3.10;42.20
10300;DHT22;5195;48.562;9.192;2023-03-01T02:27:51;3.40;41.50
10300;DHT22;5195;48.562;9.192;2023-03-01T02:30:21;3.30;41.60
10300;DHT22;5195;48.562;9.192;2023-03-01T02:32:46;3.20;41.80
10300;DHT22;5195;48.562;9.192;2023-03-01T02:35:13;3.40;41.70
10300;DHT22;5195;48.562;9.192;2023-03-01T02:37:37;3.20;41.70
10300;DHT22;5195;48.562;9.192;2023-03-01T02:40:04;2.90;42.10
10300;DHT22;5195;48.562;9.192;2023-03-01T02:42:35;2.70;42.60
10300;DHT22;5195;48.562;9.192;2023-03-01T02:44:58;2.70;42.90
10300;DHT22;5195;48.562;9.192;2023-03-01T02:47:24;2.70;43.00
10300;DHT22;5195;48.562;9.192;2023-03-01T02:49:49;2.50;43.10
10300;DHT22;5195;48.562;9.192;2023-03-01T02:52:47;2.70;43.30
10300;DHT22;5195;48.562;9.192;2023-03-01T02:55:12;3.00;42.80
10300;DHT22;5195;48.562;9.192;2023-03-01T02:57:39;3.30;42.20
10300;DHT22;5195;48.562;9.192;2023-03-01T03:00:05;3.50;41.80
10300;DHT22;5195;48.562;9.192;2023-03-01T03:02:33;3.70;41.50
10300;DHT22;5195;48.562;9.192;2023-03-01T03:05:05;3.70;41.10
10300;DHT22;5195;48.562;9.192;2023-03-01T03:07:30;3.60;41.30
10300;DHT22;5195;48.562;9.192;2023-03-01T03:09:57;3.20;41.80
10300;DHT22;5195;48.562;9.192;2023-03-01T03:12:22;2.90;42.30
10300;DHT22;5195;48.562;9.192;2023-03-01T03:14:49;2.50;43.10
10300;DHT22;5195;48.562;9.192;2023-03-01T03:17:14;2.50;43.10
10300;DHT22;5195;48.562;9.192;2023-03-01T03:19:41;2.20;43.40
10300;DHT22;5195;48.562;9.192;2023-03-01T03:22:06;2.20;43.40
10300;DHT22;5195;48.562;9.192;2023-03-01T03:24:32;2.00;43.70
10300;DHT22;5195;48.562;9.192;2023-03-01T03:26:58;2.00;43.70
10300;DHT22;5195;48.562;9.192;2023-03-01T03:29:24;2.30;43.70
10300;DHT22;5195;48.562;9.192;2023-03-01T03:31:50;2.30;43.70
10300;DHT22;5195;48.562;9.192;2023-03-01T03:34:15;2.20;43.80
10300;DHT22;5195;48.562;9.192;2023-03-01T03:36:41;2.10;43.90
10300;DHT22;5195;48.562;9.192;2023-03-01T03:39:08;2.20;44.10
10300;DHT22;5195;48.562;9.192;2023-03-01T03:41:34;2.60;43.80
10300;DHT22;5195;48.562;9.192;2023-03-01T03:44:00;2.60;43.50
10300;DHT22;5195;48.562;9.192;2023-03-01T03:46:25;2.50;43.70
10300;DHT22;5195;48.562;9.192;2023-03-01T03:48:52;2.90;43.40
10300;DHT22;5195;48.562;9.192;2023-03-01T03:51:17;2.90;43.80
10300;DHT22;5195;48.562;9.192;2023-03-01T03:53:43;2.90;43.10
10300;DHT22;5195;48.562;9.192;2023-03-01T03:56:09;2.90;43.00
10300;DHT22;5195;48.562;9.192;2023-03-01T03:58:34;2.90;43.00
10300;DHT22;5195;48.562;9.192;2023-03-01T04:01:02;2.90;43.10
10300;DHT22;5195;48.562;9.192;2023-03-01T04:03:28;2.70;43.30
10300;DHT22;5195;48.562;9.192;2023-03-01T04:05:54;2.70;43.30
10300;DHT22;5195;48.562;9.192;2023-03-01T04:08:20;2.80;43.30
10300;DHT22;5195;48.562;9.192;2023-03-01T04:10:45;3.10;43.00
10300;DHT22;5195;48.562;9.192;2023-03-01T04:13:11;3.40;42.50
10300;DHT22;5195;48.562;9.192;2023-03-01T04:15:38;3.00;42.80
10300;DHT22;5195;48.562;9.192;2023-03-01T04:18:04;3.00;43.10
10300;DHT22;5195;48.562;9.192;2023-03-01T04:20:31;3.00;43.00
10300;DHT22;5195;48.562;9.192;2023-03-01T04:23:01;3.30;42.70
10300;DHT22;5195;48.562;9.192;2023-03-01T04:25:27;3.40;42.50
10300;DHT22;5195;48.562;9.192;2023-03-01T04:27:53;3.40;42.50
10300;DHT22;5195;48.562;9.192;2023-03-01T04:30:20;3.40;42.50
10300;DHT22;5195;48.562;9.192;2023-03-01T04:32:46;3.70;42.20
10300;DHT22;5195;48.562;9.192;2023-03-01T04:35:11;3.50;42.20
10300;DHT22;5195;48.562;9.192;2023-03-01T04:37:37;3.60;42.40
10300;DHT22;5195;48.562;9.192;2023-03-01T04:40:03;3.70;42.00
10300;DHT22;5195;48.562;9.192;2023-03-01T04:42:31;3.60;41.90
10300;DHT22;5195;48.562;9.192;2023-03-01T04:44:57;3.60;42.10
10300;DHT22;5195;48.562;9.192;2023-03-01T04:47:23;3.70;42.20
10300;DHT22;5195;48.562;9.192;2023-03-01T04:49:49;3.70;42.10
10300;DHT22;5195;48.562;9.192;2023-03-01T04:52:14;3.40;42.40
10300;DHT22;5195;48.562;9.192;2023-03-01T04:54:40;3.10;42.60
10300;DHT22;5195;48.562;9.192;2023-03-01T04:57:06;2.90;43.00
10300;DHT22;5195;48.562;9.192;2023-03-01T04:59:32;3.00;43.10
10300;DHT22;5195;48.562;9.192;2023-03-01T05:01:58;3.00;43.00
10300;DHT22;5195;48.562;9.192;2023-03-01T05:04:23;3.10;43.00
10300;DHT22;5195;48.562;9.192;2023-03-01T05:06:49;3.10;43.00
10300;DHT22;5195;48.562;9.192;2023-03-01T05:09:16;3.20;43.20
10300;DHT22;5195;48.562;9.192;2023-03-01T05:11:41;3.40;42.70
10300;DHT22;5195;48.562;9.192;2023-03-01T05:14:07;3.70;42.40
10300;DHT22;5195;48.562;9.192;2023-03-01T05:16:33;3.60;42.50
10300;DHT22;5195;48.562;9.192;2023-03-01T05:18:59;3.30;42.70
10300;DHT22;5195;48.562;9.192;2023-03-01T05:21:26;3.30;42.90
10300;DHT22;5195;48.562;9.192;2023-03-01T05:23:53;3.80;42.40
10300;DHT22;5195;48.562;9.192;2023-03-01T05:26:19;3.80;42.40
10300;DHT22;5195;48.562;9.192;2023-03-01T05:28:44;3.60;42.20
10300;DHT22;5195;48.562;9.192;2023-03-01T05:31:10;3.30;42.60
10300;DHT22;5195;48.562;9.192;2023-03-01T05:33:37;3.10;43.20
10300;DHT22;5195;48.562;9.192;2023-03-01T05:36:02;3.20;43.40
10300;DHT22;5195;48.562;9.192;2023-03-01T05:38:27;3.20;43.40
10300;DHT22;5195;48.562;9.192;2023-03-01T05:40:53;3.30;43.30
10300;DHT22;5195;48.562;9.192;2023-03-01T05:43:18;3.30;43.30
10300;DHT22;5195;48.562;9.192;2023-03-01T05:45:44;3.30;43.30
10300;DHT22;5195;48.562;9.192;2023-03-01T05:48:10;3.10;43.90
10300;DHT22;5195;48.562;9.192;2023-03-01T05:50:44;3.10;43.40
10300;DHT22;5195;48.562;9.192;2023-03-01T05:53:14;3.50;43.10
10300;DHT22;5195;48.562;9.192;2023-03-01T05:55:39;3.50;43.10
10300;DHT22;5195;48.562;9.192;2023-03-01T05:58:06;3.70;42.50
10300;DHT22;5195;48.562;9.192;2023-03-01T06:00:32;3.60;42.50
10300;DHT22;5195;48.562;9.192;2023-03-01T06:02:58;3.40;42.90
10300;DHT22;5195;48.562;9.192;2023-03-01T06:05:24;2.90;43.80
10300;DHT22;5195;48.562;9.192;2023-03-01T06:07:50;3.00;43.90
10300;DHT22;5195;48.562;9.192;2023-03-01T06:10:17;3.00;43.90
10300;DHT22;5195;48.562;9.192;2023-03-01T06:12:45;3.00;43.80
10300;DHT22;5195;48.562;9.192;2023-03-01T06:15:11;2.90;44.00
10300;DHT22;5195;48.562;9.192;2023-03-01T06:17:36;2.80;44.20
10300;DHT22;5195;48.562;9.192;2023-03-01T06:20:01;2.90;44.10
10300;DHT22;5195;48.562;9.192;2023-03-01T06:22:27;2.90;43.90
10300;DHT22;5195;48.562;9.192;2023-03-01T06:24:52;3.10;43.90
10300;DHT22;5195;48.562;9.192;2023-03-01T06:27:19;3.40;43.10
10300;DHT22;5195;48.562;9.192;2023-03-01T06:29:44;3.40;43.10
10300;DHT22;5195;48.562;9.192;2023-03-01T06:32:10;3.40;43.00
10300;DHT22;5195;48.562;9.192;2023-03-01T06:34:36;3.30;42.90
10300;DHT22;5195;48.562;9.192;2023-03-01T06:37:02;3.00;43.20
10300;DHT22;5195;48.562;9.192;2023-03-01T06:39:28;2.90;43.60
10300;DHT22;5195;48.562;9.192;2023-03-01T06:41:53;2.70;43.90
10300;DHT22;5195;48.562;9.192;2023-03-01T06:44:19;2.60;44.30
10300;DHT22;5195;48.562;9.192;2023-03-01T06:46:44;2.80;44.40
10300;DHT22;5195;48.562;9.192;2023-03-01T06:49:11;3.20;43.70
10300;DHT22;5195;48.562;9.192;2023-03-01T06:51:37;3.20;43.70
10300;DHT22;5195;48.562;9.192;2023-03-01T06:54:07;3.60;43.00
10300;DHT22;5195;48.562;9.192;2023-03-01T06:56:33;3.70;43.10
10300;DHT22;5195;48.562;9.192;2023-03-01T06:58:58;4.00;42.60
10300;DHT22;5195;48.562;9.192;2023-03-01T07:01:24;4.20;42.00
10300;DHT22;5195;48.562;9.192;2023-03-01T07:03:50;4.40;41.60
10300;DHT22;5195;48.562;9.192;2023-03-01T07:06:15;4.50;41.20
10300;DHT22;5195;48.562;9.192;2023-03-01T07:08:42;4.40;41.60
10300;DHT22;5195;48.562;9.192;2023-03-01T07:11:09;4.20;42.00
10300;DHT22;5195;48.562;9.192;2023-03-01T07:13:34;4.20;42.00
10300;DHT22;5195;48.562;9.192;2023-03-01T07:16:00;3.90;42.80
10300;DHT22;5195;48.562;9.192;2023-03-01T07:18:26;3.90;42.40
10300;DHT22;5195;48.562;9.192;2023-03-01T07:20:52;3.70;42.80
10300;DHT22;5195;48.562;9.192;2023-03-01T07:23:18;3.60;43.20
10300;DHT22;5195;48.562;9.192;2023-03-01T07:25:43;3.50;43.30
10300;DHT22;5195;48.562;9.192;2023-03-01T07:28:08;3.50;43.60
10300;DHT22;5195;48.562;9.192;2023-03-01T07:30:35;4.10;43.10
10300;DHT22;5195;48.562;9.192;2023-03-01T07:33:00;4.10;42.70
10300;DHT22;5195;48.562;9.192;2023-03-01T07:35:26;4.20;42.50
10300;DHT22;5195;48.562;9.192;2023-03-01T07:37:52;4.50;42.00
10300;DHT22;5195;48.562;9.192;2023-03-01T07:40:19;4.40;41.90
10300;DHT22;5195;48.562;9.192;2023-03-01T07:42:45;4.60;41.50
10300;DHT22;5195;48.562;9.192;2023-03-01T07:45:10;5.00;41.80
10300;DHT22;5195;48.562;9.192;2023-03-01T07:47:36;5.30;40.30
10300;DHT22;5195;48.562;9.192;2023-03-01T07:50:02;5.10;41.40
10300;DHT22;5195;48.562;9.192;2023-03-01T07:52:29;5.10;40.80
10300;DHT22;5195;48.562;9.192;2023-03-01T07:54:55;5.20;40.50
10300;DHT22;5195;48.562;9.192;2023-03-01T07:57:20;5.50;39.90
10300;DHT22;5195;48.562;9.192;2023-03-01T07:59:46;5.50;40.00
10300;DHT22;5195;48.562;9.192;2023-03-01T08:02:11;5.40;40.40
10300;DHT22;5195;48.562;9.192;2023-03-01T08:04:37;5.20;40.70
10300;DHT22;5195;48.562;9.192;2023-03-01T08:07:04;5.10;41.00
10300;DHT22;5195;48.562;9.192;2023-03-01T08:09:29;5.00;41.70
10300;DHT22;5195;48.562;9.192;2023-03-01T08:11:56;5.00;41.80
10300;DHT22;5195;48.562;9.192;2023-03-01T08:14:20;5.00;41.70
10300;DHT22;5195;48.562;9.192;2023-03-01T08:16:48;5.20;40.60
10300;DHT22;5195;48.562;9.192;2023-03-01T08:19:11;5.60;39.90
10300;DHT22;5195;48.562;9.192;2023-03-01T08:21:37;6.00;39.20
10300;DHT22;5195;48.562;9.192;2023-03-01T08:24:03;6.30;39.00
10300;DHT22;5195;48.562;9.192;2023-03-01T08:26:30;6.50;38.90
10300;DHT22;5195;48.562;9.192;2023-03-01T08:28:55;6.40;38.30
10300;DHT22;5195;48.562;9.192;2023-03-01T08:31:32;6.70;38.00
10300;DHT22;5195;48.562;9.192;2023-03-01T08:33:55;6.90;37.50
10300;DHT22;5195;48.562;9.192;2023-03-01T08:36:30;7.10;36.60
10300;DHT22;5195;48.562;9.192;2023-03-01T08:38:55;7.20;36.40
10300;DHT22;5195;48.562;9.192;2023-03-01T08:41:21;7.40;35.90
10300;DHT22;5195;48.562;9.192;2023-03-01T08:43:47;7.40;35.90
10300;DHT22;5195;48.562;9.192;2023-03-01T08:46:12;7.40;35.80
10300;DHT22;5195;48.562;9.192;2023-03-01T08:48:38;7.20;36.60
10300;DHT22;5195;48.562;9.192;2023-03-01T08:51:10;6.90;37.10
10300;DHT22;5195;48.562;9.192;2023-03-01T08:53:32;6.90;36.80
10300;DHT22;5195;48.562;9.192;2023-03-01T08:55:59;7.10;36.40
10300;DHT22;5195;48.562;9.192;2023-03-01T08:58:25;7.30;36.20
10300;DHT22;5195;48.562;9.192;2023-03-01T09:00:50;7.50;35.90
10300;DHT22;5195;48.562;9.192;2023-03-01T09:03:17;7.40;36.40
10300;DHT22;5195;48.562;9.192;2023-03-01T09:05:43;7.20;36.60
10300;DHT22;5195;48.562;9.192;2023-03-01T09:08:09;7.20;36.50
10300;DHT22;5195;48.562;9.192;2023-03-01T09:10:37;7.50;35.80
10300;DHT22;5195;48.562;9.192;2023-03-01T09:13:00;7.70;35.40
10300;DHT22;5195;48.562;9.192;2023-03-01T09:15:26;7.90;34.90
10300;DHT22;5195;48.562;9.192;2023-03-01T09:17:52;8.10;34.70
10300;DHT22;5195;48.562;9.192;2023-03-01T09:20:19;8.00;35.30
10300;DHT22;5195;48.562;9.192;2023-03-01T09:22:45;8.10;35.00
10300;DHT22;5195;48.562;9.192;2023-03-01T09:25:11;8.00;35.30
10300;DHT22;5195;48.562;9.192;2023-03-01T09:27:37;7.90;35.90
10300;DHT22;5195;48.562;9.192;2023-03-01T09:30:03;7.70;36.00
10300;DHT22;5195;48.562;9.192;2023-03-01T09:32:30;7.50;36.30
10300;DHT22;5195;48.562;9.192;2023-03-01T09:34:55;7.30;36.60
10300;DHT22;5195;48.562;9.192;2023-03-01T09:37:27;7.20;37.10
10300;DHT22;5195;48.562;9.192;2023-03-01T09:39:53;7.20;37.30
10300;DHT22;5195;48.562;9.192;2023-03-01T09:42:18;7.40;36.20
10300;DHT22;5195;48.562;9.192;2023-03-01T09:44:52;7.50;36.40
10300;DHT22;5195;48.562;9.192;2023-03-01T09:47:17;7.50;36.70
10300;DHT22;5195;48.562;9.192;2023-03-01T09:49:41;7.70;35.80
10300;DHT22;5195;48.562;9.192;2023-03-01T09:54:54;8.40;34.40
10300;DHT22;5195;48.562;9.192;2023-03-01T09:57:19;8.40;35.00
10300;DHT22;5195;48.562;9.192;2023-03-01T10:02:26;8.50;35.00
10300;DHT22;5195;48.562;9.192;2023-03-01T10:04:50;8.60;34.30
10300;DHT22;5195;48.562;9.192;2023-03-01T10:10:07;8.80;34.00
10300;DHT22;5195;48.562;9.192;2023-03-01T10:12:34;8.90;33.60
10300;DHT22;5195;48.562;9.192;2023-03-01T10:18:09;9.20;34.20
10300;DHT22;5195;48.562;9.192;2023-03-01T10:20:46;9.20;33.70
10300;DHT22;5195;48.562;9.192;2023-03-01T10:23:10;9.20;34.20
10300;DHT22;5195;48.562;9.192;2023-03-01T10:28:26;8.90;35.20
10300;DHT22;5195;48.562;9.192;2023-03-01T10:30:50;9.10;33.80
10300;DHT22;5195;48.562;9.192;2023-03-01T10:33:23;9.40;33.40
10300;DHT22;5195;48.562;9.192;2023-03-01T10:35:48;9.60;32.40
10300;DHT22;5195;48.562;9.192;2023-03-01T10:38:14;9.60;33.30
10300;DHT22;5195;48.562;9.192;2023-03-01T10:43:32;9.90;32.50
10300;DHT22;5195;48.562;9.192;2023-03-01T10:45:54;10.20;32.00
10300;DHT22;5195;48.562;9.192;2023-03-01T10:48:20;10.20;32.00
10300;DHT22;5195;48.562;9.192;2023-03-01T10:50:48;10.10;32.60
10300;DHT22;5195;48.562;9.192;2023-03-01T10:55:48;9.70;34.40
10300;DHT22;5195;48.562;9.192;2023-03-01T10:58:18;9.70;34.90
10300;DHT22;5195;48.562;9.192;2023-03-01T11:03:26;9.90;33.30
10300;DHT22;5195;48.562;9.192;2023-03-01T11:06:05;9.80;33.50
10300;DHT22;5195;48.562;9.192;2023-03-01T11:08:31;9.80;32.50
10300;DHT22;5195;48.562;9.192;2023-03-01T11:13:34;10.20;32.00
10300;DHT22;5195;48.562;9.192;2023-03-01T11:16:05;10.00;32.30
10300;DHT22;5195;48.562;9.192;2023-03-01T11:18:29;9.90;33.60
10300;DHT22;5195;48.562;9.192;2023-03-01T11:20:54;9.80;33.90
10300;DHT22;5195;48.562;9.192;2023-03-01T11:23:21;9.60;33.90
10300;DHT22;5195;48.562;9.192;2023-03-01T11:25:58;9.50;34.10
10300;DHT22;5195;48.562;9.192;2023-03-01T11:28:22;9.70;33.20
10300;DHT22;5195;48.562;9.192;2023-03-01T11:33:54;10.30;31.90
10300;DHT22;5195;48.562;9.192;2023-03-01T11:36:32;10.40;30.50
10300;DHT22;5195;48.562;9.192;2023-03-01T11:38:56;10.70;30.00
10300;DHT22;5195;48.562;9.192;2023-03-01T11:41:27;10.90;30.00
10300;DHT22;5195;48.562;9.192;2023-03-01T11:44:02;10.90;30.00
10300;DHT22;5195;48.562;9.192;2023-03-01T11:46:44;11.00;29.70
10300;DHT22;5195;48.562;9.192;2023-03-01T11:49:34;10.90;30.70
10300;DHT22;5195;48.562;9.192;2023-03-01T11:56:48;11.00;29.70
10300;DHT22;5195;48.562;9.192;2023-03-01T12:02:25;10.80;29.90
10300;DHT22;5195;48.562;9.192;2023-03-01T12:08:10;10.90;30.70
10300;DHT22;5195;48.562;9.192;2023-03-01T12:11:00;10.60;30.80
10300;DHT22;5195;48.562;9.192;2023-03-01T12:16:46;10.40;30.60
10300;DHT22;5195;48.562;9.192;2023-03-01T12:22:20;10.70;30.40
10300;DHT22;5195;48.562;9.192;2023-03-01T12:38:38;10.00;32.20
10300;DHT22;5195;48.562;9.192;2023-03-01T12:44:08;10.20;31.90
10300;DHT22;5195;48.562;9.192;2023-03-01T12:51:34;10.60;31.40
10300;DHT22;5195;48.562;9.192;2023-03-01T12:54:01;10.40;31.90
10300;DHT22;5195;48.562;9.192;2023-03-01T12:56:27;10.30;32.40
10300;DHT22;5195;48.562;9.192;2023-03-01T12:59:02;10.20;32.50
10300;DHT22;5195;48.562;9.192;2023-03-01T13:04:21;10.20;31.20
10300;DHT22;5195;48.562;9.192;2023-03-01T13:06:50;10.50;30.80
10300;DHT22;5195;48.562;9.192;2023-03-01T13:09:26;10.30;31.70
10300;DHT22;5195;48.562;9.192;2023-03-01T13:11:50;10.00;32.00
10300;DHT22;5195;48.562;9.192;2023-03-01T13:16:45;10.10;31.20
10300;DHT22;5195;48.562;9.192;2023-03-01T13:19:13;10.20;31.60
10300;DHT22;5195;48.562;9.192;2023-03-01T13:21:37;10.20;31.50
10300;DHT22;5195;48.562;9.192;2023-03-01T13:24:03;10.50;31.10
10300;DHT22;5195;48.562;9.192;2023-03-01T13:26:31;10.80;30.20
10300;DHT22;5195;48.562;9.192;2023-03-01T13:28:57;10.70;30.80
10300;DHT22;5195;48.562;9.192;2023-03-01T13:34:01;10.90;30.80
10300;DHT22;5195;48.562;9.192;2023-03-01T13:39:03;10.50;31.70
10300;DHT22;5195;48.562;9.192;2023-03-01T13:44:33;10.40;31.70
10300;DHT22;5195;48.562;9.192;2023-03-01T13:46:59;10.40;31.70
10300;DHT22;5195;48.562;9.192;2023-03-01T13:49:27;10.50;30.70
10300;DHT22;5195;48.562;9.192;2023-03-01T13:51:52;10.50;31.30
10300;DHT22;5195;48.562;9.192;2023-03-01T13:54:28;10.50;30.50
10300;DHT22;5195;48.562;9.192;2023-03-01T13:56:52;10.70;30.60
10300;DHT22;5195;48.562;9.192;2023-03-01T13:59:18;10.70;31.30
10300;DHT22;5195;48.562;9.192;2023-03-01T14:01:43;10.50;31.80
10300;DHT22;5195;48.562;9.192;2023-03-01T14:06:48;10.20;31.80
10300;DHT22;5195;48.562;9.192;2023-03-01T14:09:24;10.20;31.80
10300;DHT22;5195;48.562;9.192;2023-03-01T14:20:20;10.20;32.50
10300;DHT22;5195;48.562;9.192;2023-03-01T14:22:45;10.20;31.60
10300;DHT22;5195;48.562;9.192;2023-03-01T14:26:08;10.50;31.00
10300;DHT22;5195;48.562;9.192;2023-03-01T14:27:52;10.50;31.00
10300;DHT22;5195;48.562;9.192;2023-03-01T14:30:19;10.60;30.80
10300;DHT22;5195;48.562;9.192;2023-03-01T14:32:42;10.50;30.80
10300;DHT22;5195;48.562;9.192;2023-03-01T14:35:19;10.80;30.50
10300;DHT22;5195;48.562;9.192;2023-03-01T14:37:43;10.90;30.10
10300;DHT22;5195;48.562;9.192;2023-03-01T14:40:19;10.80;30.70
10300;DHT22;5195;48.562;9.192;2023-03-01T14:42:36;10.80;30.40
10300;DHT22;5195;48.562;9.192;2023-03-01T14:45:02;10.60;31.00
10300;DHT22;5195;48.562;9.192;2023-03-01T14:47:31;10.40;31.60
10300;DHT22;5195;48.562;9.192;2023-03-01T14:50:01;10.40;30.90
10300;DHT22;5195;48.562;9.192;2023-03-01T14:52:22;10.70;30.60
10300;DHT22;5195;48.562;9.192;2023-03-01T14:54:52;10.60;31.10
10300;DHT22;5195;48.562;9.192;2023-03-01T14:57:25;10.40;31.60
10300;DHT22;5195;48.562;9.192;2023-03-01T14:59:51;10.40;31.10
10300;DHT22;5195;48.562;9.192;2023-03-01T15:02:22;10.40;31.70
10300;DHT22;5195;48.562;9.192;2023-03-01T15:04:44;10.00;32.70
10300;DHT22;5195;48.562;9.192;2023-03-01T15:07:09;10.00;32.70
10300;DHT22;5195;48.562;9.192;2023-03-01T15:09:34;9.90;33.90
10300;DHT22;5195;48.562;9.192;2023-03-01T15:11:59;10.00;31.80
10300;DHT22;5195;48.562;9.192;2023-03-01T15:14:39;10.10;32.30
10300;DHT22;5195;48.562;9.192;2023-03-01T15:17:04;10.20;31.80
10300;DHT22;5195;48.562;9.192;2023-03-01T15:19:30;10.00;32.60
10300;DHT22;5195;48.562;9.192;2023-03-01T15:21:56;9.90;33.50
10300;DHT22;5195;48.562;9.192;2023-03-01T15:24:25;10.10;32.20
10300;DHT22;5195;48.562;9.192;2023-03-01T15:26:58;10.10;32.50
10300;DHT22;5195;48.562;9.192;2023-03-01T15:29:23;10.20;32.00
10300;DHT22;5195;48.562;9.192;2023-03-01T15:31:56;10.40;31.50
10300;DHT22;5195;48.562;9.192;2023-03-01T15:36:49;10.10;32.50
10300;DHT22;5195;48.562;9.192;2023-03-01T15:39:42;10.10;32.00
10300;DHT22;5195;48.562;9.192;2023-03-01T15:42:08;10.20;32.10
10300;DHT22;5195;48.562;9.192;2023-03-01T15:44:34;10.20;32.10
10300;DHT22;5195;48.562;9.192;2023-03-01T15:46:59;10.10;31.80
10300;DHT22;5195;48.562;9.192;2023-03-01T15:49:38;10.10;32.30
10300;DHT22;5195;48.562;9.192;2023-03-01T15:52:03;10.10;32.10
10300;DHT22;5195;48.562;9.192;2023-03-01T15:54:28;10.30;31.90
10300;DHT22;5195;48.562;9.192;2023-03-01T15:56:54;10.10;32.20
10300;DHT22;5195;48.562;9.192;2023-03-01T15:59:21;10.10;32.10
10300;DHT22;5195;48.562;9.192;2023-03-01T16:01:46;10.30;31.80
10300;DHT22;5195;48.562;9.192;2023-03-01T16:04:14;10.40;31.50
10300;DHT22;5195;48.562;9.192;2023-03-01T16:06:39;10.50;31.10
10300;DHT22;5195;48.562;9.192;2023-03-01T16:09:05;10.30;31.70
10300;DHT22;5195;48.562;9.192;2023-03-01T16:11:30;10.20;31.60
10300;DHT22;5195;48.562;9.192;2023-03-01T16:13:57;9.70;33.40
10300;DHT22;5195;48.562;9.192;2023-03-01T16:16:22;9.60;33.40
10300;DHT22;5195;48.562;9.192;2023-03-01T16:18:50;9.40;33.50
10300;DHT22;5195;48.562;9.192;2023-03-01T16:21:23;9.40;33.50
10300;DHT22;5195;48.562;9.192;2023-03-01T16:23:48;9.60;33.50
10300;DHT22;5195;48.562;9.192;2023-03-01T16:26:14;9.60;33.40
10300;DHT22;5195;48.562;9.192;2023-03-01T16:28:42;9.30;33.90
10300;DHT22;5195;48.562;9.192;2023-03-01T16:31:09;8.80;34.70
10300;DHT22;5195;48.562;9.192;2023-03-01T16:33:34;8.80;34.60
10300;DHT22;5195;48.562;9.192;2023-03-01T16:36:00;9.00;34.30
10300;DHT22;5195;48.562;9.192;2023-03-01T16:38:25;8.90;34.40
10300;DHT22;5195;48.562;9.192;2023-03-01T16:40:51;8.80;34.80
10300;DHT22;5195;48.562;9.192;2023-03-01T16:43:16;8.90;34.60
10300;DHT22;5195;48.562;9.192;2023-03-01T16:45:42;8.90;34.70
10300;DHT22;5195;48.562;9.192;2023-03-01T16:48:07;9.00;34.20
10300;DHT22;5195;48.562;9.192;2023-03-01T16:50:33;8.90;34.40
10300;DHT22;5195;48.562;9.192;2023-03-01T16:52:58;8.70;34.70
10300;DHT22;5195;48.562;9.192;2023-03-01T16:55:24;8.80;34.30
10300;DHT22;5195;48.562;9.192;2023-03-01T16:57:50;8.70;34.50
10300;DHT22;5195;48.562;9.192;2023-03-01T17:00:15;8.80;34.20
10300;DHT22;5195;48.562;9.192;2023-03-01T17:02:41;9.10;33.90
10300;DHT22;5195;48.562;9.192;2023-03-01T17:05:07;9.30;33.50
10300;DHT22;5195;48.562;9.192;2023-03-01T17:07:32;9.40;33.20
10300;DHT22;5195;48.562;9.192;2023-03-01T17:09:58;9.50;33.10
10300;DHT22;5195;48.562;9.192;2023-03-01T17:12:25;9.30;33.50
10300;DHT22;5195;48.562;9.192;2023-03-01T17:14:50;9.20;33.60
10300;DHT22;5195;48.562;9.192;2023-03-01T17:17:16;9.30;33.50
10300;DHT22;5195;48.562;9.192;2023-03-01T17:19:41;9.40;33.30
10300;DHT22;5195;48.562;9.192;2023-03-01T17:22:07;9.10;33.70
10300;DHT22;5195;48.562;9.192;2023-03-01T17:24:36;8.80;34.30
10300;DHT22;5195;48.562;9.192;2023-03-01T17:27:01;8.70;34.40
10300;DHT22;5195;48.562;9.192;2023-03-01T17:29:28;9.00;33.80
10300;DHT22;5195;48.562;9.192;2023-03-01T17:31:54;9.10;33.60
10300;DHT22;5195;48.562;9.192;2023-03-01T17:34:20;9.10;33.60
10300;DHT22;5195;48.562;9.192;2023-03-01T17:36:45;8.90;33.90
10300;DHT22;5195;48.562;9.192;2023-03-01T17:39:11;8.80;34.00
10300;DHT22;5195;48.562;9.192;2023-03-01T17:41:36;8.60;35.00
10300;DHT22;5195;48.562;9.192;2023-03-01T17:44:04;8.50;34.40